createdAt,value
2023-01-17T00:00:00.449Z,9.95
2023-01-17T00:02:31.052Z,11.90
2023-01-17T00:05:18.160Z,7.43
2023-01-17T00:08:05.492Z,24.63
2023-01-17T00:10:34.253Z,8.13
2023-01-17T00:13:03.562Z,14.80
2023-01-17T00:15:32.397Z,9.38
2023-01-17T00:18:00.847Z,5.28
2023-01-17T00:20:49.445Z,7.93
2023-01-17T00:23:44.469Z,4.70
2023-01-17T00:26:16.814Z,7.22
2023-01-17T00:28:46.289Z,8.52
2023-01-17T00:31:16.468Z,3.53
2023-01-17T00:33:44.899Z,5.03
2023-01-17T00:36:13.602Z,7.63
2023-01-17T00:38:42.064Z,3.50
2023-01-17T00:41:13.008Z,3.55
2023-01-17T00:44:00.279Z,2.50
2023-01-17T00:46:47.348Z,3.53
2023-01-17T00:49:34.559Z,6.53
2023-01-17T00:52:21.426Z,2.75
2023-01-17T00:55:08.317Z,9.00
2023-01-17T00:57:55.170Z,3.97
2023-01-17T01:00:42.019Z,4.00
2023-01-17T01:03:29.890Z,2.00
2023-01-17T01:06:17.497Z,3.50
2023-01-17T01:09:04.453Z,1.98
2023-01-17T01:11:51.290Z,3.22
2023-01-17T01:14:38.331Z,2.38
2023-01-17T01:17:25.537Z,4.88
2023-01-17T01:20:12.550Z,2.75
2023-01-17T01:22:59.458Z,2.80
2023-01-17T01:25:46.472Z,2.33
2023-01-17T01:28:34.433Z,3.80
2023-01-17T01:31:22.301Z,5.50
2023-01-17T01:33:51.754Z,2.65
2023-01-17T01:36:20.571Z,3.28
2023-01-17T01:38:50.299Z,6.97
2023-01-17T01:41:18.791Z,3.00
2023-01-17T01:43:52.535Z,2.47
2023-01-17T01:46:36.664Z,2.08
2023-01-17T01:49:17.293Z,2.22
2023-01-17T01:51:53.010Z,2.25
2023-01-17T01:54:25.489Z,2.92
2023-01-17T01:56:57.182Z,1.77
2023-01-17T01:59:26.332Z,2.00
2023-01-17T02:01:56.137Z,1.58
2023-01-17T02:04:27.559Z,4.32
2023-01-17T02:07:03.043Z,2.00
2023-01-17T02:09:31.724Z,1.85
2023-01-17T02:12:00.389Z,5.68
2023-01-17T02:14:28.975Z,3.65
2023-01-17T02:17:03.862Z,2.80
2023-01-17T02:20:17.640Z,14.52
2023-01-17T02:22:49.266Z,5.53
2023-01-17T02:25:32.935Z,5.35
2023-01-17T02:28:39.232Z,6.30
2023-01-17T02:31:17.720Z,8.00
2023-01-17T02:33:59.834Z,6.85
2023-01-17T02:36:45.570Z,5.80
2023-01-17T02:39:19.821Z,9.48
2023-01-17T02:41:54.465Z,1.40
2023-01-17T02:44:23.944Z,3.60
2023-01-17T02:46:57.064Z,3.72
2023-01-17T02:49:30.406Z,3.92
2023-01-17T02:52:37.287Z,1.50
2023-01-17T02:55:41.058Z,2.53
2023-01-17T02:58:19.369Z,1.67
2023-01-17T03:00:58.988Z,3.15
2023-01-17T03:03:49.515Z,10.05
2023-01-17T03:06:32.331Z,6.35
2023-01-17T03:09:02.387Z,1.70
2023-01-17T03:11:30.879Z,4.57
2023-01-17T03:13:59.347Z,5.35
2023-01-17T03:16:30.907Z,1.67
2023-01-17T03:18:59.588Z,2.40
2023-01-17T03:21:27.996Z,2.83
2023-01-17T03:23:56.582Z,2.90
2023-01-17T03:26:25.048Z,3.10
2023-01-17T03:28:53.532Z,1.55
2023-01-17T03:31:21.892Z,1.92
2023-01-17T03:33:50.501Z,3.08
2023-01-17T03:36:20.233Z,3.03
2023-01-17T03:38:49.709Z,1.92
2023-01-17T03:41:18.202Z,3.60
2023-01-17T03:43:46.655Z,5.97
2023-01-17T03:46:23.820Z,2.83
2023-01-17T03:48:52.690Z,4.47
2023-01-17T03:51:21.447Z,4.25
2023-01-17T03:53:50.746Z,8.88
2023-01-17T03:56:19.782Z,3.83
2023-01-17T03:58:48.249Z,4.22
2023-01-17T04:01:16.773Z,6.43
2023-01-17T04:03:45.325Z,3.65
2023-01-17T04:06:13.712Z,5.63
2023-01-17T04:08:42.091Z,6.03
2023-01-17T04:11:10.596Z,2.67
2023-01-17T04:13:38.988Z,3.88
2023-01-17T04:16:13.137Z,3.17
2023-01-17T04:18:41.798Z,4.15
2023-01-17T04:21:10.285Z,2.10
2023-01-17T04:23:38.771Z,2.63
2023-01-17T04:26:07.184Z,2.30
2023-01-17T04:28:35.591Z,6.00
2023-01-17T04:31:05.586Z,3.30
2023-01-17T04:33:34.035Z,6.90
2023-01-17T04:36:02.473Z,2.50
2023-01-17T04:38:30.930Z,8.65
2023-01-17T04:40:59.379Z,2.70
2023-01-17T04:43:27.827Z,12.63
2023-01-17T04:45:57.587Z,3.35
2023-01-17T04:48:27.210Z,4.25
2023-01-17T04:51:03.284Z,3.50
2023-01-17T04:53:32.077Z,10.52
2023-01-17T04:56:00.533Z,15.30
2023-01-17T04:58:29.440Z,14.40
2023-01-17T05:01:04.552Z,17.70
2023-01-17T05:03:34.240Z,9.15
2023-01-17T05:06:03.231Z,8.00
2023-01-17T05:08:31.633Z,10.90
2023-01-17T05:11:00.021Z,15.27
2023-01-17T05:13:28.510Z,12.18
2023-01-17T05:15:58.333Z,10.38
2023-01-17T05:18:26.846Z,16.55
2023-01-17T05:21:01.684Z,12.85
2023-01-17T05:23:30.187Z,12.80
2023-01-17T05:25:58.711Z,11.48
2023-01-17T05:28:27.213Z,9.80
2023-01-17T05:30:55.688Z,13.93
2023-01-17T05:33:24.144Z,17.27
2023-01-17T05:35:52.792Z,37.92
2023-01-17T05:38:22.553Z,12.07
2023-01-17T05:40:51.060Z,10.05
2023-01-17T05:43:20.335Z,11.07
2023-01-17T05:45:50.503Z,13.20
2023-01-17T05:48:18.936Z,8.40
2023-01-17T05:50:47.449Z,11.75
2023-01-17T05:53:16.789Z,11.98
2023-01-17T05:55:45.518Z,12.52
2023-01-17T05:58:16.954Z,9.70
2023-01-17T06:00:45.791Z,12.52
2023-01-17T06:03:14.781Z,22.90
2023-01-17T06:05:45.294Z,10.43
2023-01-17T06:08:13.790Z,11.02
2023-01-17T06:10:42.309Z,12.50
2023-01-17T06:13:14.315Z,11.02
2023-01-17T06:15:42.779Z,13.40
2023-01-17T06:18:13.466Z,15.15
2023-01-17T06:20:42.586Z,19.92
2023-01-17T06:23:13.350Z,16.33
2023-01-17T06:25:44.181Z,11.65
2023-01-17T06:28:14.919Z,23.63
2023-01-17T06:30:44.017Z,10.23
2023-01-17T06:33:12.931Z,13.45
2023-01-17T06:35:48.426Z,9.57
2023-01-17T06:38:16.982Z,11.25
2023-01-17T06:40:45.549Z,14.60
2023-01-17T06:43:14.020Z,10.98
2023-01-17T06:45:42.414Z,14.18
2023-01-17T06:48:11.081Z,23.20
2023-01-17T06:50:39.722Z,16.80
2023-01-17T06:53:08.305Z,14.65
2023-01-17T06:55:40.165Z,14.32
2023-01-17T06:58:08.803Z,15.43
2023-01-17T07:00:39.581Z,14.60
2023-01-17T07:03:19.023Z,23.42
2023-01-17T07:05:48.218Z,24.55
2023-01-17T07:08:18.003Z,12.20
2023-01-17T07:10:47.580Z,24.70
2023-01-17T07:13:16.462Z,18.95
2023-01-17T07:15:44.890Z,18.45
2023-01-17T07:18:13.387Z,11.73
2023-01-17T07:20:43.809Z,14.30
2023-01-17T07:23:13.059Z,27.73
2023-01-17T07:25:41.696Z,13.68
2023-01-17T07:28:10.163Z,12.98
2023-01-17T07:30:38.658Z,14.77
2023-01-17T07:33:07.173Z,29.52
2023-01-17T07:35:36.980Z,13.15
2023-01-17T07:38:05.831Z,21.27
2023-01-17T07:40:41.845Z,24.27
2023-01-17T07:43:14.175Z,12.00
2023-01-17T07:45:43.987Z,18.40
2023-01-17T07:48:12.855Z,19.85
2023-01-17T07:50:41.353Z,14.45
2023-01-17T07:53:10.549Z,15.18
2023-01-17T07:55:40.137Z,26.58
2023-01-17T07:58:09.449Z,16.70
2023-01-17T08:00:37.980Z,17.95
2023-01-17T08:03:06.395Z,17.55
2023-01-17T08:05:34.793Z,20.92
2023-01-17T08:08:03.492Z,20.70
2023-01-17T08:10:31.897Z,20.48
2023-01-17T08:13:00.263Z,23.20
2023-01-17T08:15:28.864Z,22.20
2023-01-17T08:17:58.598Z,18.98
2023-01-17T08:20:28.116Z,27.77
2023-01-17T08:22:57.144Z,22.98
2023-01-17T08:25:26.824Z,18.88
2023-01-17T08:27:58.214Z,16.27
2023-01-17T08:30:26.920Z,17.75
2023-01-17T08:32:55.780Z,16.38
2023-01-17T08:35:24.219Z,23.65
2023-01-17T08:37:55.027Z,17.25
2023-01-17T08:40:24.379Z,18.42
2023-01-17T08:42:58.059Z,40.15
2023-01-17T08:45:27.530Z,17.75
2023-01-17T08:47:57.655Z,17.77
2023-01-17T08:50:26.920Z,15.70
2023-01-17T08:53:01.088Z,18.17
2023-01-17T08:55:29.832Z,27.45
2023-01-17T08:57:58.409Z,14.32
2023-01-17T09:00:28.543Z,19.58
2023-01-17T09:02:57.031Z,22.30
2023-01-17T09:05:25.710Z,17.00
2023-01-17T09:07:56.653Z,20.98
2023-01-17T09:10:25.264Z,40.10
2023-01-17T09:12:53.789Z,16.05
2023-01-17T09:15:22.461Z,19.52
2023-01-17T09:17:51.037Z,18.52
2023-01-17T09:20:19.794Z,12.52
2023-01-17T09:22:48.242Z,21.35
2023-01-17T09:25:16.901Z,17.85
2023-01-17T09:27:46.916Z,20.38
2023-01-17T09:30:15.938Z,17.80
2023-01-17T09:32:44.497Z,14.02
2023-01-17T09:35:13.677Z,17.02
2023-01-17T09:37:42.087Z,22.33
2023-01-17T09:40:24.497Z,14.73
2023-01-17T09:45:27.979Z,22.38
2023-01-17T09:47:57.876Z,18.60
2023-01-17T09:50:52.294Z,15.60
2023-01-17T09:53:21.498Z,14.18
2023-01-17T09:56:05.925Z,12.10
2023-01-17T09:59:00.309Z,13.73
2023-01-17T10:01:54.103Z,23.23
2023-01-17T10:04:58.071Z,18.08
2023-01-17T10:07:44.978Z,15.75
2023-01-17T10:10:19.883Z,16.38
2023-01-17T10:12:57.507Z,12.05
2023-01-17T10:15:39.094Z,14.25
2023-01-17T10:18:32.876Z,11.23
2023-01-17T10:21:19.418Z,11.75
2023-01-17T10:24:23.258Z,13.25
2023-01-17T10:26:56.296Z,12.35
2023-01-17T10:29:30.473Z,8.75
2023-01-17T10:32:00.509Z,13.82
2023-01-17T10:35:01.375Z,14.75
2023-01-17T10:37:43.311Z,13.00
2023-01-17T10:40:24.662Z,9.25
2023-01-17T10:43:12.560Z,17.42
2023-01-17T10:45:48.822Z,10.30
2023-01-17T10:48:39.625Z,23.05
2023-01-17T10:51:15.934Z,8.40
2023-01-17T10:54:07.320Z,27.60
2023-01-17T10:56:39.518Z,17.83
2023-01-17T11:01:48.706Z,15.32
2023-01-17T11:04:21.924Z,11.27
2023-01-17T11:07:12.061Z,12.23
2023-01-17T11:09:49.789Z,10.00
2023-01-17T11:12:38.274Z,11.60
2023-01-17T11:15:09.857Z,20.08
2023-01-17T11:17:52.993Z,15.57
2023-01-17T11:20:38.530Z,18.02
2023-01-17T11:23:31.621Z,13.23
2023-01-17T11:26:07.583Z,11.93
2023-01-17T11:28:38.731Z,10.77
2023-01-17T11:31:16.526Z,27.20
2023-01-17T11:34:06.405Z,6.75
2023-01-17T11:36:35.184Z,5.93
2023-01-17T11:39:16.878Z,7.95
2023-01-17T11:41:52.240Z,19.63
2023-01-17T11:44:23.681Z,8.13
2023-01-17T11:47:08.453Z,10.13
2023-01-17T11:49:37.073Z,15.02
2023-01-17T11:52:33.825Z,8.13
2023-01-17T11:55:02.372Z,31.15
2023-01-17T11:57:35.122Z,21.88
2023-01-17T12:00:30.629Z,8.90
2023-01-17T12:03:30.113Z,7.65
2023-01-17T12:06:20.423Z,11.13
2023-01-17T12:08:51.302Z,7.30
2023-01-17T12:12:05.494Z,8.18
2023-01-17T12:15:03.454Z,7.60
2023-01-17T12:17:53.416Z,3.67
2023-01-17T12:20:34.321Z,14.40
2023-01-17T12:23:24.644Z,11.07
2023-01-17T12:26:19.679Z,23.60
2023-01-17T12:29:00.125Z,6.22
2023-01-17T12:31:34.489Z,3.92
2023-01-17T12:34:31.908Z,6.53
2023-01-17T12:37:18.648Z,4.55
2023-01-17T12:40:15.057Z,7.38
2023-01-17T12:43:06.093Z,4.13
2023-01-17T12:45:46.927Z,4.38
2023-01-17T12:48:21.584Z,4.15
2023-01-17T12:51:00.135Z,6.53
2023-01-17T12:53:52.134Z,9.05
2023-01-17T12:56:24.350Z,16.27
2023-01-17T13:01:39.627Z,12.40
2023-01-17T13:04:42.002Z,3.47
2023-01-17T13:07:26.082Z,3.83
2023-01-17T13:10:02.636Z,12.50
2023-01-17T13:12:33.297Z,12.30
2023-01-17T13:15:03.945Z,5.45
2023-01-17T13:17:48.171Z,8.38
2023-01-17T13:20:32.283Z,8.35
2023-01-17T13:23:12.478Z,9.38
2023-01-17T13:25:50.167Z,6.97
2023-01-17T13:28:55.027Z,4.35
2023-01-17T13:31:45.282Z,31.55
2023-01-17T13:34:28.946Z,4.03
2023-01-17T13:37:00.385Z,5.63
2023-01-17T13:39:33.127Z,6.47
2023-01-17T13:42:10.909Z,11.02
2023-01-17T13:44:39.348Z,10.25
2023-01-17T13:47:11.301Z,16.90
2023-01-17T13:49:51.511Z,3.92
2023-01-17T13:52:19.903Z,4.70
2023-01-17T13:54:49.481Z,9.65
2023-01-17T13:57:29.831Z,5.95
2023-01-17T14:00:28.001Z,10.07
2023-01-17T14:02:56.469Z,8.77
2023-01-17T14:05:31.068Z,4.15
2023-01-17T14:08:04.002Z,6.20
2023-01-17T14:10:38.944Z,10.98
2023-01-17T14:13:39.618Z,7.32
2023-01-17T14:16:26.964Z,7.10
2023-01-17T14:18:55.906Z,18.23
2023-01-17T14:21:28.965Z,5.10
2023-01-17T14:24:15.872Z,4.97
2023-01-17T14:26:59.005Z,6.60
2023-01-17T14:29:42.736Z,6.63
2023-01-17T14:32:18.550Z,9.38
2023-01-17T14:34:50.230Z,18.75
2023-01-17T14:37:40.515Z,27.13
2023-01-17T14:40:27.341Z,8.82
2023-01-17T14:43:02.184Z,10.60
2023-01-17T14:45:34.379Z,14.40
2023-01-17T14:50:39.369Z,11.30
2023-01-17T14:53:16.221Z,7.75
2023-01-17T14:55:47.915Z,11.00
2023-01-17T14:58:21.570Z,5.72
2023-01-17T15:00:54.555Z,4.55
2023-01-17T15:03:23.311Z,8.20
2023-01-17T15:05:54.451Z,11.20
2023-01-17T15:08:29.000Z,14.88
2023-01-17T15:11:05.376Z,22.25
2023-01-17T15:13:45.245Z,5.60
2023-01-17T15:16:33.282Z,10.20
2023-01-17T15:19:02.781Z,16.77
2023-01-17T15:21:42.340Z,12.55
2023-01-17T15:24:20.495Z,15.13
2023-01-17T15:26:49.281Z,6.75
2023-01-17T15:29:26.165Z,19.15
2023-01-17T15:32:00.528Z,7.10
2023-01-17T15:34:32.420Z,13.52
2023-01-17T15:37:03.807Z,8.05
2023-01-17T15:39:39.254Z,6.20
2023-01-17T15:42:22.330Z,7.00
2023-01-17T15:44:56.592Z,10.15
2023-01-17T15:47:30.536Z,10.90
2023-01-17T15:50:01.032Z,11.25
2023-01-17T15:52:29.612Z,3.70
2023-01-17T15:55:14.530Z,15.00
2023-01-17T15:57:47.488Z,5.82
2023-01-17T16:00:24.091Z,9.63
2023-01-17T16:02:58.745Z,8.30
2023-01-17T16:05:33.907Z,14.13
2023-01-17T16:08:02.501Z,17.60
2023-01-17T16:10:35.600Z,9.43
2023-01-17T16:13:06.682Z,13.40
2023-01-17T16:15:36.689Z,6.50
2023-01-17T16:18:11.793Z,15.40
2023-01-17T16:20:46.522Z,7.20
2023-01-17T16:23:15.675Z,12.95
2023-01-17T16:25:44.544Z,8.23
2023-01-17T16:28:13.114Z,5.93
2023-01-17T16:30:41.836Z,8.85
2023-01-17T16:33:12.921Z,15.75
2023-01-17T16:35:42.953Z,6.38
2023-01-17T16:38:15.512Z,16.67
2023-01-17T16:40:45.323Z,10.63
2023-01-17T16:43:15.176Z,11.57
2023-01-17T16:45:46.308Z,5.38
2023-01-17T16:48:16.638Z,15.77
2023-01-17T16:50:50.414Z,13.98
2023-01-17T16:53:24.471Z,9.20
2023-01-17T16:56:00.148Z,9.38
2023-01-17T16:58:28.727Z,10.73
2023-01-17T17:00:57.618Z,10.30
2023-01-17T17:03:26.501Z,14.45
2023-01-17T17:06:00.352Z,10.63
2023-01-17T17:08:29.378Z,13.50
2023-01-17T17:11:19.253Z,28.55
2023-01-17T17:13:49.693Z,14.20
2023-01-17T17:16:29.698Z,11.93
2023-01-17T17:19:01.055Z,15.10
2023-01-17T17:21:31.710Z,10.27
2023-01-17T17:24:01.218Z,15.57
2023-01-17T17:26:34.347Z,13.88
2023-01-17T17:29:04.216Z,27.80
2023-01-17T17:31:33.140Z,13.40
2023-01-17T17:34:03.562Z,20.25
2023-01-17T17:36:32.108Z,19.63
2023-01-17T17:39:03.419Z,14.73
2023-01-17T17:41:40.339Z,24.23
2023-01-17T17:44:08.882Z,17.75
2023-01-17T17:46:37.761Z,14.43
2023-01-17T17:49:06.763Z,24.88
2023-01-17T17:51:38.403Z,17.92
2023-01-17T17:54:10.251Z,16.60
2023-01-17T17:56:39.698Z,23.67
2023-01-17T17:59:09.594Z,12.68
2023-01-17T18:01:38.281Z,16.30
2023-01-17T18:04:08.169Z,27.17
2023-01-17T18:06:38.612Z,10.98
2023-01-17T18:09:08.606Z,22.83
2023-01-17T18:11:40.425Z,22.42
2023-01-17T18:14:12.967Z,18.92
2023-01-17T18:16:43.628Z,24.60
2023-01-17T18:19:21.563Z,18.25
2023-01-17T18:21:51.394Z,10.35
2023-01-17T18:24:22.348Z,13.05
2023-01-17T18:26:57.059Z,14.15
2023-01-17T18:29:27.215Z,13.98
2023-01-17T18:31:56.041Z,16.00
2023-01-17T18:34:29.151Z,24.70
2023-01-17T18:36:57.964Z,22.05
2023-01-17T18:39:29.081Z,28.65
2023-01-17T18:41:58.392Z,18.23
2023-01-17T18:44:27.578Z,16.05
2023-01-17T18:47:01.833Z,17.92
2023-01-17T18:49:32.473Z,33.40
2023-01-17T18:52:01.207Z,31.75
2023-01-17T18:54:34.822Z,20.30
2023-01-17T18:57:03.332Z,20.45
2023-01-17T18:59:31.750Z,18.83
2023-01-17T19:02:00.346Z,22.23
2023-01-17T19:04:29.624Z,17.13
2023-01-17T19:06:58.087Z,16.63
2023-01-17T19:09:26.766Z,27.58
2023-01-17T19:11:55.279Z,19.88
2023-01-17T19:14:23.823Z,13.80
2023-01-17T19:16:52.405Z,23.40
2023-01-17T19:19:20.892Z,16.77
2023-01-17T19:21:52.684Z,13.82
2023-01-17T19:24:21.120Z,23.42
2023-01-17T19:26:52.872Z,27.70
2023-01-17T19:29:22.594Z,36.05
2023-01-17T19:31:51.140Z,19.00
2023-01-17T19:34:20.269Z,23.52
2023-01-17T19:36:48.769Z,16.65
2023-01-17T19:39:17.197Z,21.38
2023-01-17T19:41:45.852Z,14.23
2023-01-17T19:44:14.919Z,20.38
2023-01-17T19:46:45.365Z,25.52
2023-01-17T19:49:16.271Z,13.95
2023-01-17T19:51:44.807Z,29.48
2023-01-17T19:54:15.168Z,15.77
2023-01-17T19:56:43.650Z,18.77
2023-01-17T19:59:13.963Z,21.40
2023-01-17T20:01:42.518Z,19.85
2023-01-17T20:04:12.761Z,17.88
2023-01-17T20:06:41.314Z,18.13
2023-01-17T20:09:09.948Z,24.40
2023-01-17T20:11:42.125Z,19.80
2023-01-17T20:16:43.404Z,25.05
2023-01-17T20:19:11.829Z,20.02
2023-01-17T20:21:40.301Z,17.05
2023-01-17T20:24:10.588Z,19.73
2023-01-17T20:26:40.145Z,22.05
2023-01-17T20:29:15.759Z,21.75
2023-01-17T20:31:45.253Z,19.65
2023-01-17T20:34:14.360Z,21.10
2023-01-17T20:36:42.823Z,18.83
2023-01-17T20:39:13.951Z,14.45
2023-01-17T20:41:44.650Z,18.58
2023-01-17T20:44:15.355Z,28.88
2023-01-17T20:46:44.086Z,28.67
2023-01-17T20:49:15.780Z,17.35
2023-01-17T20:51:45.537Z,20.63
2023-01-17T20:54:17.741Z,16.92
2023-01-17T20:59:21.489Z,18.23
2023-01-17T21:01:50.615Z,23.08
2023-01-17T21:04:25.500Z,19.60
2023-01-17T21:06:54.596Z,19.23
2023-01-17T21:09:23.500Z,22.50
2023-01-17T21:11:52.811Z,18.15
2023-01-17T21:14:21.801Z,19.58
2023-01-17T21:16:50.385Z,15.88
2023-01-17T21:19:20.334Z,13.20
2023-01-17T21:21:49.963Z,26.05
2023-01-17T21:24:19.531Z,24.50
2023-01-17T21:26:51.308Z,58.95
2023-01-17T21:29:19.934Z,89.25
2023-01-17T21:31:48.402Z,35.92
2023-01-17T21:34:16.903Z,52.03
2023-01-17T21:36:45.465Z,54.95
2023-01-17T21:39:17.461Z,36.03
2023-01-17T21:41:49.467Z,25.65
2023-01-17T21:44:20.697Z,29.77
2023-01-17T21:46:54.169Z,18.23
2023-01-17T21:49:23.993Z,27.48
2023-01-17T21:51:52.460Z,28.42
2023-01-17T21:54:43.043Z,25.58
2023-01-17T21:57:31.407Z,26.98
2023-01-17T21:59:59.906Z,22.67
2023-01-17T22:02:28.361Z,16.38
2023-01-17T22:04:56.865Z,28.10
2023-01-17T22:07:27.083Z,30.00
2023-01-17T22:09:56.862Z,21.00
2023-01-17T22:12:25.347Z,21.88
2023-01-17T22:14:54.413Z,19.30
2023-01-17T22:17:23.109Z,25.27
2023-01-17T22:19:51.582Z,31.35
2023-01-17T22:22:19.999Z,32.92
2023-01-17T22:24:48.431Z,28.52
2023-01-17T22:27:16.867Z,21.15
2023-01-17T22:29:45.706Z,27.73
2023-01-17T22:32:14.180Z,27.08
2023-01-17T22:34:42.667Z,22.35
2023-01-17T22:37:11.265Z,30.02
2023-01-17T22:39:39.741Z,20.08
2023-01-17T22:42:08.427Z,18.73
2023-01-17T22:44:36.924Z,28.75
2023-01-17T22:47:05.680Z,21.77
2023-01-17T22:49:34.097Z,25.10
2023-01-17T22:52:02.551Z,30.10
2023-01-17T22:54:31.307Z,36.47
2023-01-17T22:56:59.765Z,20.38
2023-01-17T22:59:28.251Z,17.20
2023-01-17T23:01:56.795Z,22.27
2023-01-17T23:04:25.857Z,38.88
2023-01-17T23:06:54.350Z,25.65
2023-01-17T23:09:22.843Z,27.70
2023-01-17T23:11:54.468Z,21.00
2023-01-17T23:14:24.572Z,19.95
2023-01-17T23:17:21.754Z,15.80
2023-01-17T23:19:52.956Z,24.85
2023-01-17T23:22:24.447Z,17.40
2023-01-17T23:25:02.106Z,12.65
2023-01-17T23:27:57.170Z,16.48
2023-01-17T23:30:36.044Z,19.33
2023-01-17T23:33:12.662Z,17.27
2023-01-17T23:35:43.166Z,12.95
2023-01-17T23:38:25.765Z,22.55
2023-01-17T23:41:24.479Z,17.80
2023-01-17T23:43:54.849Z,20.02
2023-01-17T23:46:25.301Z,13.70
2023-01-17T23:48:54.996Z,10.68
2023-01-17T23:51:23.527Z,12.95
2023-01-17T23:53:57.214Z,20.42
2023-01-17T23:56:25.668Z,25.45
2023-01-17T23:58:54.120Z,12.02
